Main page
METAR-TAF:

METAR-TAF

Airports :

London-Gatwick, England

Gatwick Airport

latitude: 51-09N, longitude: 000-11W, elevation: 62 m

Current weather observation

The report was made 31 minutes ago, at 04:20 UTC
Wind 13 kt from the West
Temperature 10°C
Humidity 76%
Pressure 1009 hPa
Visibility 10 km or more
Few clouds at a height of 2600 ft

METAR: EGKK 220420Z 26013KT 9999 FEW026 10/06 Q1009

Time: 05:51 (04:51 UTC)

Forecast

The report was made 5 hours and 55 minutes ago, at 22:56 UTC
Forecast valid from 22 at 00 UTC to 23 at 06 UTC
Wind 12 kt from the West
Visibility 10 km or more
Scattered clouds at a height of 2000 ft
Temporary
from 22 at 00 UTC to 22 at 08 UTC
Wind 18 kt from the West with gusts up to 28 kt
Visibility: 7000 m
Broken clouds at a height of 1400 ft
rain showers
Temporary
from 22 at 08 UTC to 22 at 19 UTC
Wind 15 kt from the West with gusts up to 25 kt

TAF: EGKK 212256Z 2200/2306 26012KT 9999 SCT020 TEMPO 2200/2208 26018G28KT 7000 SHRA BKN014 TEMPO 2208/2219 26015G25KT

Weather observations and forecasts of more than 4000 airports (METAR and TAF reports).

The available stations are represented by yellow and red dots on the map.

Hover mouse over dot to see the name of the station.

Then click to see weather observations and forecasts.

To change the map : click on the green buttons with a black cross to zoom in, on the green button with a dash to zoom out, or on the green arrows for adjacent maps.


METAR-TAF: